In Rescue
 
Open Full Screen Window  High Contrast Mode
Wind Gusting 00 knots
07
March 19, 2019 5:46 PM CDT
Weather Information
Wind Direction
  240 °
Wind Speed
  07 kt (8 mph)
Wind Gust
  00 kt (0 mph)
Altimeter
30.02 in
Visibility
10 SM
Temperature
06° C
43° F
Dewpoint
-01° C
30° F
Humidity
61%
1hr Rain Fall
00.00 in.
24hr Rain Fall
00.00 in.
Sky Condition
Clear
VFR

METAR KEVM 192246Z AUTO 24007KT 10SM CLR 06/M01 A3002 RMK AO2 T00561015

FAA Disclaimer: The data displayed is for advisory purposes only and is not to be used for flight planning or operations.